Time;durP1;ratioP1;P1;durP2;ratioP2;P2;SDS_P1;SDS_P2;PMS_P1;PMS_P2;Temp;Humidity;BMP_temperature;BMP_pressure;BME280_temperature;BME280_humidity;BME280_pressure;Samples;Min_cycle;Max_cycle;Signal;HPM_P1;HPM_P2
2023/06/26 00:01:31;;;;;;;4.63;2.85;;;;;;;26.23;54.74;100782.59;5093458;28;20052;-83
2023/06/26 00:04:01;;;;;;;4.05;2.88;;;;;;;26.39;53.47;100773.97;5093448;28;20055;-83
2023/06/26 00:06:29;;;;;;;3.28;2.88;;;;;;;26.43;53.56;100777.59;5092818;28;20402;-83
2023/06/26 00:08:58;;;;;;;3.53;3.03;;;;;;;26.14;53.75;100775.28;5093302;28;20044;-83
2023/06/26 00:11:27;;;;;;;3.40;2.65;;;;;;;26.09;54.42;100772.81;5073593;28;20055;-84
2023/06/26 00:13:55;;;;;;;3.78;3.22;;;;;;;26.10;54.44;100773.63;5072572;28;20049;-84
2023/06/26 00:16:23;;;;;;;4.55;2.90;;;;;;;26.21;54.45;100785.78;5072938;28;20399;-84
2023/06/26 00:18:51;;;;;;;4.43;2.67;;;;;;;26.06;54.65;100772.78;5091444;28;20058;-83
2023/06/26 00:21:19;;;;;;;3.75;2.90;;;;;;;25.93;55.30;100775.81;5093072;28;20051;-83
2023/06/26 00:23:47;;;;;;;3.50;3.00;;;;;;;25.84;55.43;100778.09;5092734;28;20406;-84
2023/06/26 00:26:15;;;;;;;3.30;2.80;;;;;;;25.79;55.64;100775.66;5092734;28;20063;-84
2023/06/26 00:28:43;;;;;;;3.25;2.60;;;;;;;25.98;55.48;100783.09;5092180;28;20052;-83
2023/06/26 00:31:11;;;;;;;3.22;2.63;;;;;;;25.85;55.57;100776.94;5091777;28;20402;-84
2023/06/26 00:33:39;;;;;;;3.38;2.67;;;;;;;26.11;55.03;100772.44;5091812;28;20391;-84
2023/06/26 00:36:07;;;;;;;6.10;3.10;;;;;;;26.03;55.14;100786.38;5092917;28;20509;-83
2023/06/26 00:38:35;;;;;;;5.30;2.70;;;;;;;26.01;55.36;100773.91;5071411;28;20048;-83
2023/06/26 00:41:12;;;;;;;3.20;2.90;;;;;;;26.14;54.34;100769.66;5071317;28;20064;-83
2023/06/26 00:43:40;;;;;;;3.08;2.50;;;;;;;25.93;55.34;100778.63;5084620;28;20050;-83
2023/06/26 00:46:13;;;;;;;3.40;3.10;;;;;;;25.89;55.72;100772.97;5075563;28;20059;-83
2023/06/26 00:48:45;;;;;;;5.05;3.10;;;;;;;25.90;54.98;100782.19;5092314;28;20032;-83
2023/06/26 00:51:13;;;;;;;7.18;3.05;;;;;;;25.97;54.62;100776.69;5091661;28;20051;-83
2023/06/26 00:53:42;;;;;;;3.00;2.63;;;;;;;25.61;55.98;100781.81;5092092;28;20593;-83
2023/06/26 00:56:11;;;;;;;3.35;2.95;;;;;;;25.72;55.47;100781.97;5091353;28;20047;-83
2023/06/26 00:58:39;;;;;;;5.93;2.65;;;;;;;25.51;55.85;100777.63;5091169;28;20040;-83
2023/06/26 01:01:08;;;;;;;3.08;2.53;;;;;;;25.73;55.75;100781.59;5092099;28;20047;-83
2023/06/26 01:03:39;;;;;;;4.13;2.70;;;;;;;25.38;57.06;100784.66;5074727;28;20045;-83
2023/06/26 01:06:11;;;;;;;3.00;2.63;;;;;;;25.29;57.54;100762.50;5092107;28;20487;-83
2023/06/26 01:08:41;;;;;;;4.75;2.90;;;;;;;25.20;57.67;100766.41;5090894;28;20044;-83
2023/06/26 01:11:12;;;;;;;5.28;2.67;;;;;;;25.34;57.18;100774.22;5090949;28;20040;-83
2023/06/26 01:13:44;;;;;;;3.03;2.80;;;;;;;25.20;58.10;100774.81;5090862;28;20059;-83
2023/06/26 01:16:13;;;;;;;3.30;2.80;;;;;;;25.16;58.27;100775.94;5092376;28;20052;-83
2023/06/26 01:18:42;;;;;;;3.28;2.97;;;;;;;25.28;57.54;100780.50;5092205;28;20055;-83
2023/06/26 01:21:13;;;;;;;4.22;3.33;;;;;;;25.50;56.59;100782.44;5090755;28;20101;-83
2023/06/26 01:24:27;;;;;;;3.15;2.75;;;;;;;25.48;56.46;100779.19;5092151;28;20044;-83
2023/06/26 01:26:56;;;;;;;3.80;2.75;;;;;;;25.27;57.01;100781.69;5090159;28;20379;-83
2023/06/26 01:29:26;;;;;;;3.28;2.80;;;;;;;25.26;56.58;100766.09;5091192;28;20047;-83
2023/06/26 01:31:54;;;;;;;4.95;3.28;;;;;;;25.30;57.00;100778.13;5091417;28;20397;-83
2023/06/26 01:34:22;;;;;;;3.17;2.83;;;;;;;25.40;56.77;100773.91;5091900;28;20506;-83
2023/06/26 01:36:50;;;;;;;4.90;3.05;;;;;;;25.31;56.81;100765.78;5091803;28;20051;-83
2023/06/26 01:39:19;;;;;;;4.30;3.30;;;;;;;25.32;56.25;100764.56;5092117;28;20058;-83
2023/06/26 01:41:47;;;;;;;4.18;3.08;;;;;;;25.33;56.36;100766.97;5091387;28;20047;-83
2023/06/26 01:44:38;;;;;;;4.22;2.97;;;;;;;25.54;55.79;100776.91;5091870;28;20056;-83
2023/06/26 01:47:10;;;;;;;4.13;3.33;;;;;;;25.31;56.64;100758.16;5090734;28;20055;-83
2023/06/26 01:49:49;;;;;;;5.25;3.15;;;;;;;25.47;56.15;100774.78;5091923;28;20379;-83
2023/06/26 01:52:45;;;;;;;4.57;3.05;;;;;;;25.52;56.06;100768.06;5070575;28;20395;-83
2023/06/26 01:55:23;;;;;;;3.72;3.33;;;;;;;25.41;57.00;100767.91;5070414;28;20047;-83
2023/06/26 01:57:56;;;;;;;3.35;2.85;;;;;;;25.07;57.61;100760.19;5071746;28;20111;-83
2023/06/26 02:00:24;;;;;;;4.25;2.47;;;;;;;25.18;57.95;100776.38;5076288;28;20040;-83
2023/06/26 02:02:52;;;;;;;4.70;2.92;;;;;;;24.79;59.67;100766.13;5091554;28;20040;-83
2023/06/26 02:05:20;;;;;;;3.25;2.95;;;;;;;24.67;59.70;100769.88;5090480;28;20052;-83
2023/06/26 02:07:48;;;;;;;3.67;2.63;;;;;;;24.70;59.15;100764.34;5091717;28;20402;-83
2023/06/26 02:10:16;;;;;;;5.47;3.08;;;;;;;24.59;58.74;100768.97;5091462;28;20037;-83
2023/06/26 02:12:44;;;;;;;3.67;2.95;;;;;;;24.79;58.15;100780.09;5090545;28;20052;-83
2023/06/26 02:15:14;;;;;;;5.28;2.92;;;;;;;24.91;57.56;100776.31;5090178;28;20084;-83
2023/06/26 02:17:42;;;;;;;7.53;3.20;;;;;;;24.94;57.59;100776.38;5094196;28;20050;-83
2023/06/26 02:20:10;;;;;;;3.10;2.80;;;;;;;25.15;57.15;100789.13;5095203;28;20048;-83
2023/06/26 02:22:38;;;;;;;5.35;3.03;;;;;;;24.87;58.41;100787.47;5095387;28;20067;-83
2023/06/26 02:25:10;;;;;;;3.72;2.92;;;;;;;24.95;57.65;100775.22;5095005;28;20044;-83
2023/06/26 02:27:39;;;;;;;5.10;3.50;;;;;;;24.84;57.95;100785.44;5094956;28;20052;-83
2023/06/26 02:30:08;;;;;;;4.28;3.00;;;;;;;24.53;59.34;100776.03;5094812;28;20040;-83
2023/06/26 02:32:37;;;;;;;2.88;2.58;;;;;;;24.50;59.52;100786.00;5074916;28;20044;-83
2023/06/26 02:35:05;;;;;;;3.60;2.78;;;;;;;24.70;58.48;100791.53;5073492;28;20047;-83
2023/06/26 02:37:33;;;;;;;6.05;3.45;;;;;;;24.70;58.99;100794.34;5073503;28;20044;-83
2023/06/26 02:40:01;;;;;;;3.53;3.00;;;;;;;24.62;58.82;100778.59;5073625;28;20044;-83
2023/06/26 02:42:32;;;;;;;3.15;2.83;;;;;;;24.73;59.29;100778.81;5094307;28;20401;-83
2023/06/26 02:45:00;;;;;;;5.22;3.30;;;;;;;24.67;59.53;100792.28;5093514;28;20048;-83
2023/06/26 02:47:30;;;;;;;4.55;2.85;;;;;;;24.58;59.74;100784.13;5094990;28;20059;-83
2023/06/26 02:49:58;;;;;;;3.40;2.42;;;;;;;24.61;59.75;100788.16;5093597;28;20040;-83
2023/06/26 02:52:28;;;;;;;3.33;3.00;;;;;;;24.29;60.66;100772.41;5092845;28;20044;-83
2023/06/26 02:54:56;;;;;;;6.15;3.28;;;;;;;24.49;60.03;100777.97;5093338;28;20041;-83
2023/06/26 02:57:24;;;;;;;3.00;2.70;;;;;;;24.49;59.29;100775.97;5076521;28;20052;-83
2023/06/26 02:59:53;;;;;;;4.28;2.90;;;;;;;24.43;59.38;100769.88;5093418;28;20044;-83
2023/06/26 03:02:21;;;;;;;5.13;3.33;;;;;;;24.61;58.54;100779.78;5092956;28;20398;-82
2023/06/26 03:04:49;;;;;;;5.45;3.25;;;;;;;24.54;58.45;100794.47;5093021;28;20036;-83
2023/06/26 03:07:18;;;;;;;5.03;2.83;;;;;;;24.52;58.30;100782.81;5093184;28;20051;-83
2023/06/26 03:09:46;;;;;;;2.88;2.65;;;;;;;24.58;58.24;100783.34;5093180;28;20059;-83
2023/06/26 03:12:14;;;;;;;16.80;3.83;;;;;;;24.72;57.27;100777.97;5094038;28;20056;-83
2023/06/26 03:14:43;;;;;;;52.00;6.07;;;;;;;24.64;57.62;100782.63;5094206;28;20052;-83
2023/06/26 03:17:14;;;;;;;17.20;4.18;;;;;;;24.28;58.55;100784.75;5075935;28;20052;-83
2023/06/26 03:19:44;;;;;;;5.75;3.22;;;;;;;24.01;59.23;100774.22;5092965;28;20051;-83
2023/06/26 03:22:21;;;;;;;4.18;3.05;;;;;;;24.21;58.66;100779.84;5075861;28;20048;-83
2023/06/26 03:24:49;;;;;;;4.22;3.00;;;;;;;24.35;58.08;100779.34;5094128;28;20055;-83
2023/06/26 03:27:17;;;;;;;5.25;3.03;;;;;;;24.29;58.44;100780.78;5093791;28;20055;-83
2023/06/26 03:29:48;;;;;;;4.72;2.58;;;;;;;24.22;58.69;100778.69;5091876;28;20384;-83
2023/06/26 03:32:17;;;;;;;3.92;2.85;;;;;;;24.34;57.96;100785.28;5092180;28;20044;-83
2023/06/26 03:34:45;;;;;;;3.25;2.83;;;;;;;24.13;58.90;100781.69;5093704;28;20048;-83
2023/06/26 03:37:13;;;;;;;7.22;3.13;;;;;;;24.43;58.44;100799.84;5093892;28;20048;-83
2023/06/26 03:39:41;;;;;;;4.78;3.03;;;;;;;24.46;58.32;100804.69;5092711;28;20063;-83
2023/06/26 03:42:09;;;;;;;3.65;2.63;;;;;;;24.35;58.01;100793.31;5092405;28;20048;-83
2023/06/26 03:44:38;;;;;;;4.22;3.35;;;;;;;24.15;59.60;100807.28;5075983;28;20040;-83
2023/06/26 03:47:06;;;;;;;4.90;3.08;;;;;;;24.27;59.30;100802.72;5092441;28;20039;-83
2023/06/26 03:49:35;;;;;;;3.45;2.83;;;;;;;24.26;59.09;100792.72;5075987;28;20051;-83
2023/06/26 03:52:04;;;;;;;4.65;3.03;;;;;;;24.25;59.20;100803.09;5091972;28;20513;-83
2023/06/26 03:54:33;;;;;;;5.32;2.72;;;;;;;24.39;58.39;100798.97;5075196;28;20047;-83
2023/06/26 03:57:02;;;;;;;5.97;3.45;;;;;;;24.33;58.16;100790.06;5092367;28;20048;-83
2023/06/26 03:59:30;;;;;;;3.65;2.90;;;;;;;24.35;58.00;100804.50;5093488;28;20039;-83
2023/06/26 04:01:58;;;;;;;4.82;3.22;;;;;;;24.28;58.44;100799.56;5091847;28;20036;-83
2023/06/26 04:04:26;;;;;;;3.35;3.05;;;;;;;24.01;59.05;100795.78;5093137;28;20047;-83
2023/06/26 04:06:57;;;;;;;3.80;3.42;;;;;;;24.26;57.98;100789.94;5093280;28;20062;-83
2023/06/26 04:09:25;;;;;;;3.47;2.65;;;;;;;24.25;58.60;100800.28;5075079;28;20048;-83
2023/06/26 04:11:53;;;;;;;4.47;3.10;;;;;;;24.28;58.21;100796.78;5092778;28;20044;-83
2023/06/26 04:14:21;;;;;;;3.85;2.78;;;;;;;24.48;57.75;100796.75;5092988;28;20051;-83
2023/06/26 04:16:49;;;;;;;4.55;3.08;;;;;;;24.64;57.86;100799.41;5092011;28;20070;-83
2023/06/26 04:19:17;;;;;;;3.30;2.95;;;;;;;24.29;58.17;100794.75;5093027;28;20043;-83
2023/06/26 04:21:46;;;;;;;3.40;2.72;;;;;;;24.39;58.94;100808.16;5092710;28;20056;-83
2023/06/26 04:24:14;;;;;;;3.42;2.92;;;;;;;24.42;57.93;100801.84;5091764;28;20044;-83
2023/06/26 04:26:42;;;;;;;3.70;2.75;;;;;;;24.60;57.93;100818.16;5092909;28;20059;-83
2023/06/26 04:29:10;;;;;;;6.65;3.00;;;;;;;24.58;58.29;100814.09;5090588;28;20054;-83
2023/06/26 04:31:39;;;;;;;6.35;3.30;;;;;;;24.46;58.60;100813.09;5091800;28;20478;-83
2023/06/26 04:34:07;;;;;;;7.65;3.10;;;;;;;24.43;58.88;100800.66;5092723;28;20044;-83
2023/06/26 04:36:38;;;;;;;8.80;3.45;;;;;;;24.41;59.19;100800.22;5092330;28;20047;-83
2023/06/26 04:39:06;;;;;;;7.78;3.50;;;;;;;24.37;59.07;100801.31;5091988;28;20047;-83
2023/06/26 04:41:34;;;;;;;16.63;4.05;;;;;;;24.60;58.46;100814.53;5092028;28;20486;-83
2023/06/26 04:44:03;;;;;;;10.38;3.78;;;;;;;24.67;57.33;100806.25;5089073;28;20040;-84
2023/06/26 04:46:31;;;;;;;11.13;3.60;;;;;;;24.63;58.97;100806.19;5092693;28;20502;-84
2023/06/26 04:48:59;;;;;;;8.63;3.22;;;;;;;24.75;58.31;100807.22;5092478;28;20048;-84
2023/06/26 04:51:28;;;;;;;9.98;3.33;;;;;;;24.77;58.17;100807.63;5092074;28;20087;-85
2023/06/26 04:53:56;;;;;;;6.30;3.20;;;;;;;24.70;57.91;100800.72;5092117;28;20051;-84
2023/06/26 04:56:25;;;;;;;5.88;3.13;;;;;;;25.03;57.56;100814.53;5091429;28;20055;-84
2023/06/26 04:58:56;;;;;;;4.97;3.00;;;;;;;24.94;57.34;100801.56;5092641;28;20398;-84
2023/06/26 05:01:24;;;;;;;3.83;3.13;;;;;;;24.93;57.87;100810.38;5092407;28;20052;-84
2023/06/26 05:03:52;;;;;;;4.35;3.10;;;;;;;25.14;57.63;100815.50;5092221;28;20055;-85
2023/06/26 05:06:20;;;;;;;4.55;3.25;;;;;;;25.21;58.00;100810.03;5091138;28;20509;-84
2023/06/26 05:08:48;;;;;;;5.82;3.40;;;;;;;25.12;58.69;100809.47;5092227;28;20051;-84
2023/06/26 05:11:16;;;;;;;4.90;3.45;;;;;;;25.13;57.69;100799.91;5092035;28;20509;-84
2023/06/26 05:13:44;;;;;;;5.25;3.67;;;;;;;25.16;57.58;100801.94;5091119;28;20067;-83
2023/06/26 05:16:12;;;;;;;15.88;4.05;;;;;;;25.42;57.28;100803.13;5091349;28;21548;-83
2023/06/26 05:18:40;;;;;;;7.38;3.53;;;;;;;25.40;56.30;100810.31;5092013;28;20048;-84
2023/06/26 05:21:08;;;;;;;6.88;3.42;;;;;;;25.55;56.34;100814.16;5091935;28;20048;-84
2023/06/26 05:23:37;;;;;;;4.22;3.17;;;;;;;25.52;56.25;100812.06;5091621;28;20043;-84
2023/06/26 05:26:08;;;;;;;6.22;3.30;;;;;;;25.72;56.16;100819.19;5091719;28;20036;-84
2023/06/26 05:28:37;;;;;;;6.22;3.35;;;;;;;25.70;56.54;100815.97;5092166;28;20048;-84
2023/06/26 05:31:05;;;;;;;6.40;3.08;;;;;;;25.76;56.11;100824.88;5090903;28;20051;-84
2023/06/26 05:33:38;;;;;;;5.97;3.00;;;;;;;25.89;55.56;100822.63;5091475;28;20044;-83
2023/06/26 05:36:08;;;;;;;9.13;3.90;;;;;;;25.80;56.29;100819.31;5086503;28;20045;-86
2023/06/26 05:38:36;;;;;;;3.97;3.28;;;;;;;25.95;55.79;100823.09;5092062;28;20052;-86
2023/06/26 05:41:04;;;;;;;10.35;3.63;;;;;;;25.99;55.70;100812.72;5090371;28;20498;-86
2023/06/26 05:43:32;;;;;;;7.60;3.70;;;;;;;26.08;55.75;100818.88;5092335;28;20040;-87
2023/06/26 05:46:00;;;;;;;7.57;3.25;;;;;;;26.02;55.80;100804.38;5092147;28;20055;-87
2023/06/26 05:48:28;;;;;;;6.47;3.42;;;;;;;26.24;54.72;100809.47;5091822;28;20395;-87
2023/06/26 05:50:56;;;;;;;6.75;3.60;;;;;;;26.33;54.23;100820.41;5090369;28;20371;-86
2023/06/26 05:53:24;;;;;;;6.28;3.80;;;;;;;26.45;53.26;100811.72;5094696;28;20044;-86
2023/06/26 05:55:53;;;;;;;12.35;4.38;;;;;;;26.49;53.57;100809.72;5094667;28;20513;-86
2023/06/26 05:58:23;;;;;;;7.03;3.47;;;;;;;26.56;54.07;100807.03;5096645;28;20052;-86
2023/06/26 06:00:51;;;;;;;8.52;3.30;;;;;;;26.68;52.55;100811.53;5075260;28;20059;-85
2023/06/26 06:03:19;;;;;;;4.13;3.20;;;;;;;26.79;52.50;100819.25;5078689;28;20064;-86
2023/06/26 06:05:48;;;;;;;5.47;3.33;;;;;;;26.78;52.14;100815.63;5075717;28;20044;-86
2023/06/26 06:08:16;;;;;;;11.15;4.20;;;;;;;26.84;52.45;100816.91;5075881;28;20071;-86
2023/06/26 06:10:45;;;;;;;4.72;2.92;;;;;;;26.98;52.17;100821.06;5076714;28;20091;-86
2023/06/26 06:13:13;;;;;;;5.97;3.53;;;;;;;26.91;50.12;100810.56;5078555;28;20071;-86
2023/06/26 06:15:42;;;;;;;4.43;3.30;;;;;;;27.10;49.96;100817.16;5076743;28;20044;-86
2023/06/26 06:18:10;;;;;;;5.38;3.55;;;;;;;27.18;49.73;100809.59;5076317;28;20056;-86
2023/06/26 06:20:38;;;;;;;5.95;3.55;;;;;;;27.22;48.62;100818.88;5076166;28;20048;-86
2023/06/26 06:23:07;;;;;;;4.20;3.38;;;;;;;27.09;48.20;100809.91;5078051;28;20041;-86
2023/06/26 06:25:35;;;;;;;4.60;3.22;;;;;;;27.37;47.60;100817.75;5076470;28;20076;-86
2023/06/26 06:28:05;;;;;;;3.80;3.30;;;;;;;27.48;45.60;100817.81;5076223;28;20395;-86
2023/06/26 06:30:33;;;;;;;5.00;3.13;;;;;;;27.68;45.87;100819.56;5076589;28;20044;-86
2023/06/26 06:33:16;;;;;;;4.30;2.97;;;;;;;27.59;45.27;100817.94;5077013;28;20418;-86
2023/06/26 06:35:44;;;;;;;5.43;3.00;;;;;;;27.72;45.44;100815.56;5076971;28;20052;-86
2023/06/26 06:38:12;;;;;;;5.55;3.50;;;;;;;27.77;44.41;100817.22;5076842;28;20044;-86
2023/06/26 06:40:41;;;;;;;5.18;3.85;;;;;;;27.80;44.20;100805.19;5076591;28;20053;-86
2023/06/26 06:43:09;;;;;;;6.20;3.53;;;;;;;27.98;44.04;100824.13;5076530;28;20052;-86
2023/06/26 06:45:38;;;;;;;7.45;3.75;;;;;;;27.98;44.66;100805.28;5076578;28;20053;-86
2023/06/26 06:48:06;;;;;;;5.38;3.22;;;;;;;28.03;46.21;100815.31;5074928;28;20041;-86
2023/06/26 06:50:35;;;;;;;5.80;3.22;;;;;;;28.15;45.64;100822.63;5075301;28;20403;-86
2023/06/26 06:53:03;;;;;;;7.82;3.42;;;;;;;28.15;46.91;100800.13;5075515;28;20044;-87
2023/06/26 06:55:32;;;;;;;3.80;3.20;;;;;;;28.18;46.32;100810.56;5076334;28;20047;-86
2023/06/26 06:58:00;;;;;;;6.82;3.42;;;;;;;28.28;45.56;100815.44;5100833;28;20024;-87
2023/06/26 07:00:32;;;;;;;4.65;3.00;;;;;;;28.38;45.39;100825.13;5077629;28;20055;-87
2023/06/26 07:03:01;;;;;;;3.88;2.83;;;;;;;28.55;45.06;100817.13;5073810;28;20052;-86
2023/06/26 07:05:29;;;;;;;8.30;3.67;;;;;;;28.51;42.60;100805.06;5091706;28;20410;-87
2023/06/26 07:07:59;;;;;;;4.03;3.10;;;;;;;28.60;42.82;100819.56;5091024;28;20045;-86
2023/06/26 07:10:29;;;;;;;11.05;3.67;;;;;;;28.61;42.32;100814.72;5097944;28;20056;-87
2023/06/26 07:12:58;;;;;;;7.40;3.70;;;;;;;28.56;42.09;100815.91;5093897;28;20048;-87
2023/06/26 07:15:26;;;;;;;4.68;3.03;;;;;;;28.63;42.43;100818.75;5075952;28;20044;-86
2023/06/26 07:17:55;;;;;;;8.35;3.53;;;;;;;28.62;43.54;100811.50;5076207;28;20048;-86
2023/06/26 07:20:24;;;;;;;6.78;3.15;;;;;;;28.76;43.36;100812.72;5092073;28;20045;-87
2023/06/26 07:22:52;;;;;;;7.45;3.42;;;;;;;28.78;43.19;100810.31;5077368;28;20067;-87
2023/06/26 07:25:21;;;;;;;8.35;3.00;;;;;;;28.91;43.45;100810.75;5077522;28;20071;-86
2023/06/26 07:27:50;;;;;;;3.72;2.92;;;;;;;28.90;43.61;100807.16;5076366;28;20072;-87
2023/06/26 07:30:18;;;;;;;7.30;3.53;;;;;;;28.99;43.21;100809.56;5076709;28;20048;-87
2023/06/26 07:32:47;;;;;;;7.47;4.05;;;;;;;29.03;43.02;100813.16;5076989;28;20055;-87
2023/06/26 07:35:16;;;;;;;4.45;3.15;;;;;;;29.13;42.74;100811.56;5076059;28;20053;-87
2023/06/26 07:37:44;;;;;;;7.97;3.70;;;;;;;29.16;42.81;100812.75;5077542;28;20053;-87
2023/06/26 07:40:13;;;;;;;5.70;2.78;;;;;;;29.24;43.00;100817.97;5077041;28;20044;-86
2023/06/26 07:42:41;;;;;;;11.43;3.25;;;;;;;29.26;42.00;100823.22;5076463;28;20048;-87
2023/06/26 07:45:12;;;;;;;12.52;3.75;;;;;;;29.30;41.73;100809.13;5077931;28;20040;-86
2023/06/26 07:47:40;;;;;;;10.27;3.53;;;;;;;29.34;42.09;100810.75;5093290;28;20049;-86
2023/06/26 07:50:09;;;;;;;8.20;3.55;;;;;;;29.43;42.87;100818.78;5075877;28;20053;-87
2023/06/26 07:52:37;;;;;;;7.57;3.42;;;;;;;29.45;42.09;100810.72;5075465;28;20044;-87
2023/06/26 07:55:06;;;;;;;10.88;3.83;;;;;;;29.50;41.71;100813.16;5076822;28;20048;-87
2023/06/26 07:57:34;;;;;;;5.85;3.30;;;;;;;29.55;42.10;100813.94;5092265;28;20060;-86
2023/06/26 08:00:06;;;;;;;7.68;4.10;;;;;;;29.56;41.64;100807.09;5080072;28;20025;-87
2023/06/26 08:02:40;;;;;;;6.13;3.45;;;;;;;29.65;41.31;100818.75;5099094;28;20024;-87
2023/06/26 08:05:09;;;;;;;7.78;3.60;;;;;;;29.67;41.82;100815.53;5099493;28;20043;-87
2023/06/26 08:07:38;;;;;;;6.47;3.22;;;;;;;29.70;41.20;100817.50;5099769;28;20027;-86
2023/06/26 08:10:06;;;;;;;7.20;3.75;;;;;;;29.80;40.75;100813.06;5098478;28;20028;-86
2023/06/26 08:12:36;;;;;;;5.90;3.40;;;;;;;29.88;41.29;100825.94;5099379;28;20047;-86
2023/06/26 08:15:06;;;;;;;4.68;3.88;;;;;;;29.81;41.32;100811.84;5098276;28;20028;-87
2023/06/26 08:17:36;;;;;;;8.02;3.50;;;;;;;29.87;41.20;100810.22;5099615;28;20028;-87
2023/06/26 08:20:07;;;;;;;6.70;3.53;;;;;;;29.91;41.82;100813.84;5099241;28;20028;-86
2023/06/26 08:22:36;;;;;;;8.93;3.33;;;;;;;30.08;42.16;100816.97;5098624;28;20036;-86
2023/06/26 08:25:05;;;;;;;7.90;3.40;;;;;;;30.11;41.04;100805.69;5083610;28;20040;-86
2023/06/26 08:27:33;;;;;;;8.80;3.30;;;;;;;30.25;40.65;100816.13;5074819;28;20045;-87
2023/06/26 08:30:02;;;;;;;5.88;3.30;;;;;;;30.27;40.33;100808.06;5074856;28;20049;-87
2023/06/26 08:32:31;;;;;;;7.97;3.10;;;;;;;30.46;40.01;100807.94;5074923;28;20048;-87
2023/06/26 08:34:59;;;;;;;4.45;3.10;;;;;;;30.43;39.67;100801.91;5075095;28;20045;-87
2023/06/26 08:37:28;;;;;;;7.95;3.17;;;;;;;30.43;40.19;100804.72;5076599;28;20052;-85
2023/06/26 08:39:56;;;;;;;3.50;3.20;;;;;;;30.38;39.98;100796.69;5075136;28;20052;-86
2023/06/26 08:42:25;;;;;;;3.40;3.10;;;;;;;30.41;40.08;100800.72;5075084;28;20067;-86
2023/06/26 08:44:53;;;;;;;9.82;3.53;;;;;;;30.67;39.79;100806.97;5090799;28;20045;-87
2023/06/26 08:47:34;;;;;;;5.60;3.20;;;;;;;30.70;39.83;100806.19;5075465;28;20048;-87
2023/06/26 08:50:12;;;;;;;4.90;2.88;;;;;;;30.68;39.31;100797.28;5075567;28;20060;-88
2023/06/26 08:52:57;;;;;;;4.75;2.63;;;;;;;30.60;39.41;100795.75;5075637;28;20390;-87
2023/06/26 08:55:27;;;;;;;4.75;2.83;;;;;;;30.63;39.69;100795.72;5075969;28;20045;-86
2023/06/26 08:57:56;;;;;;;5.22;3.10;;;;;;;30.82;39.88;100791.56;5075475;28;20048;-87
2023/06/26 09:00:25;;;;;;;6.07;2.95;;;;;;;30.90;39.56;100785.84;5075720;28;20048;-87
2023/06/26 09:02:55;;;;;;;2.80;2.53;;;;;;;30.94;39.56;100775.34;5076087;28;20045;-87
2023/06/26 09:05:23;;;;;;;5.93;3.03;;;;;;;30.98;39.56;100784.56;5076182;28;20053;-87
2023/06/26 09:07:55;;;;;;;4.30;2.90;;;;;;;31.05;39.32;100778.88;5091801;28;20068;-87
2023/06/26 09:10:26;;;;;;;6.60;3.10;;;;;;;31.09;39.12;100779.63;5075660;28;20047;-86
2023/06/26 09:13:06;;;;;;;4.22;2.70;;;;;;;31.25;39.38;100786.75;5091651;28;20048;-87
2023/06/26 09:15:55;;;;;;;5.15;2.90;;;;;;;31.26;38.06;100779.88;5106903;28;20027;-87
2023/06/26 09:18:24;;;;;;;3.67;2.78;;;;;;;31.41;38.24;100786.22;5113963;28;20027;-87
2023/06/26 09:20:52;;;;;;;2.70;2.50;;;;;;;31.35;38.09;100785.88;5097679;28;20024;-87
2023/06/26 09:23:23;;;;;;;4.28;3.20;;;;;;;31.43;37.45;100780.13;5112736;28;20045;-87
2023/06/26 09:25:51;;;;;;;6.97;3.70;;;;;;;31.46;37.82;100776.44;5081553;28;20044;-88
2023/06/26 09:28:20;;;;;;;5.78;3.42;;;;;;;31.52;38.70;100771.94;5088732;28;20040;-87
2023/06/26 09:30:50;;;;;;;5.63;3.88;;;;;;;31.62;38.50;100778.72;5092429;28;20059;-87
2023/06/26 09:33:20;;;;;;;4.60;3.20;;;;;;;31.69;38.00;100766.50;5094684;28;20058;-87
2023/06/26 09:35:48;;;;;;;5.47;3.45;;;;;;;31.81;37.24;100756.66;5076085;28;20041;-89
2023/06/26 09:38:18;;;;;;;4.45;2.90;;;;;;;31.80;36.57;100755.06;5108182;28;20048;-87
2023/06/26 09:40:46;;;;;;;5.78;3.00;;;;;;;31.85;36.68;100752.59;5075810;28;20045;-87
2023/06/26 09:43:15;;;;;;;3.35;2.90;;;;;;;31.96;35.68;100758.09;5076146;28;20403;-87
2023/06/26 09:45:44;;;;;;;7.65;2.90;;;;;;;31.99;35.17;100750.78;5076130;28;20044;-87
2023/06/26 09:48:14;;;;;;;3.22;2.60;;;;;;;32.14;35.31;100752.19;5075986;28;20037;-87
2023/06/26 09:50:42;;;;;;;3.25;2.90;;;;;;;32.14;36.38;100751.38;5081933;28;20052;-87
2023/06/26 09:53:34;;;;;;;5.85;3.05;;;;;;;32.08;36.00;100736.91;5079482;28;20041;-88
2023/06/26 09:56:07;;;;;;;4.07;3.15;;;;;;;32.00;35.21;100752.38;5078293;28;20044;-87
2023/06/26 09:58:37;;;;;;;3.40;2.90;;;;;;;32.08;35.56;100745.41;5077107;28;20049;-87
2023/06/26 10:01:07;;;;;;;6.15;3.10;;;;;;;32.09;34.05;100749.03;5077563;28;20048;-87
2023/06/26 10:03:35;;;;;;;3.83;3.10;;;;;;;32.22;34.80;100735.91;5094235;28;20044;-87
2023/06/26 10:06:06;;;;;;;6.18;3.28;;;;;;;32.41;34.06;100742.91;5076706;28;20048;-87
2023/06/26 10:08:36;;;;;;;5.38;2.97;;;;;;;32.53;33.63;100735.84;5078700;28;20044;-87
2023/06/26 10:11:08;;;;;;;3.42;2.95;;;;;;;32.63;34.17;100731.25;5078185;28;20045;-87
2023/06/26 10:13:39;;;;;;;5.68;2.90;;;;;;;32.82;33.44;100731.72;5078428;28;20072;-86
2023/06/26 10:16:10;;;;;;;7.68;3.25;;;;;;;32.88;33.10;100741.34;5078023;28;20056;-87
2023/06/26 10:18:40;;;;;;;3.65;2.67;;;;;;;33.01;32.77;100737.91;5093334;28;20053;-87
2023/06/26 10:21:09;;;;;;;4.10;3.38;;;;;;;32.76;33.43;100736.28;5078242;28;20048;-88
2023/06/26 10:23:41;;;;;;;3.92;3.40;;;;;;;32.98;33.14;100739.56;5096239;28;20044;-87
2023/06/26 10:26:13;;;;;;;3.35;3.05;;;;;;;33.02;33.10;100733.84;5075296;28;20055;-87
2023/06/26 10:28:45;;;;;;;5.43;3.03;;;;;;;32.97;33.11;100733.13;5094811;28;20051;-87
2023/06/26 10:31:13;;;;;;;4.35;3.40;;;;;;;32.98;32.77;100728.22;5085682;28;20399;-87
2023/06/26 10:33:42;;;;;;;4.50;3.00;;;;;;;32.96;33.15;100728.69;5093926;28;20048;-86
2023/06/26 10:36:19;;;;;;;4.97;2.85;;;;;;;33.15;33.34;100719.84;5094591;28;20048;-87
2023/06/26 10:38:50;;;;;;;3.92;3.15;;;;;;;33.15;33.17;100725.50;5094429;28;20036;-91
2023/06/26 10:41:23;;;;;;;4.43;3.13;;;;;;;33.09;31.68;100728.84;5076705;28;20402;-87
2023/06/26 10:44:16;;;;;;;3.17;2.70;;;;;;;33.09;32.93;100733.72;5093261;28;20040;-87
2023/06/26 10:46:50;;;;;;;3.45;2.78;;;;;;;33.34;31.94;100727.53;5094822;28;20067;-86
2023/06/26 10:49:20;;;;;;;4.50;3.00;;;;;;;33.42;32.25;100722.53;5096510;28;20059;-87
2023/06/26 10:51:50;;;;;;;3.45;2.50;;;;;;;33.29;32.02;100724.44;5094684;28;20048;-87
2023/06/26 10:54:19;;;;;;;4.40;3.20;;;;;;;33.36;32.09;100736.44;5094677;28;20040;-89
2023/06/26 10:56:57;;;;;;;3.40;2.92;;;;;;;33.44;32.26;100716.44;5077347;28;20055;-88
2023/06/26 10:59:28;;;;;;;3.20;2.80;;;;;;;33.63;31.36;100720.53;5093695;28;20052;-87
2023/06/26 11:01:59;;;;;;;4.53;3.05;;;;;;;33.46;32.32;100720.44;5093776;28;20067;-87
2023/06/26 11:04:52;;;;;;;5.22;2.88;;;;;;;33.46;32.49;100720.44;5085786;28;20052;-87
2023/06/26 11:07:24;;;;;;;5.40;2.83;;;;;;;33.34;32.30;100723.91;5078399;28;20052;-86
2023/06/26 11:10:05;;;;;;;3.42;2.42;;;;;;;33.44;31.48;100714.41;5077295;28;20055;-87
2023/06/26 11:12:47;;;;;;;4.35;2.58;;;;;;;33.59;31.91;100709.25;5080217;28;20049;-86
2023/06/26 11:15:18;;;;;;;3.38;3.08;;;;;;;33.64;31.55;100714.44;5087596;28;20059;-89
2023/06/26 11:17:49;;;;;;;3.47;2.83;;;;;;;33.77;31.71;100713.75;5076622;28;20506;-87
2023/06/26 11:20:18;;;;;;;3.33;2.97;;;;;;;33.86;31.34;100713.16;5081689;28;20051;-87
2023/06/26 11:22:52;;;;;;;3.05;2.75;;;;;;;33.87;31.15;100707.00;5075776;28;20052;-87
2023/06/26 11:25:20;;;;;;;5.90;2.92;;;;;;;34.01;31.35;100710.78;5076270;28;20407;-87
2023/06/26 11:27:49;;;;;;;3.47;3.17;;;;;;;34.17;31.19;100710.03;5078259;28;20483;-87
2023/06/26 11:30:26;;;;;;;3.65;2.83;;;;;;;34.07;31.28;100708.25;5087263;28;20047;-86
2023/06/26 11:33:09;;;;;;;3.22;2.90;;;;;;;34.30;30.94;100708.09;5081967;28;20057;-86
2023/06/26 11:35:38;;;;;;;4.73;2.67;;;;;;;34.48;31.24;100703.19;5094592;28;20054;-87
2023/06/26 11:38:08;;;;;;;3.75;3.15;;;;;;;34.31;31.61;100712.50;5080279;28;20036;-86